createdAt,value
2023-01-26T00:00:47.734Z,0.20
2023-01-26T00:03:14.491Z,0.23
2023-01-26T00:05:41.212Z,0.21
2023-01-26T00:08:08.617Z,0.16
2023-01-26T00:10:39.076Z,0.05
2023-01-26T00:13:06.228Z,-0.04
2023-01-26T00:15:33.537Z,0.06
2023-01-26T00:18:00.329Z,-0.02
2023-01-26T00:20:27.074Z,-0.03
2023-01-26T00:22:53.741Z,-0.04
2023-01-26T00:25:20.275Z,0.02
2023-01-26T00:27:46.760Z,-0.03
2023-01-26T00:30:13.769Z,-0.03
2023-01-26T00:32:40.291Z,-0.09
2023-01-26T00:35:07.139Z,-0.19
2023-01-26T00:37:33.623Z,-0.24
2023-01-26T00:40:00.044Z,-0.32
2023-01-26T00:42:26.514Z,-0.30
2023-01-26T00:44:52.997Z,-0.30
2023-01-26T00:47:19.640Z,-0.26
2023-01-26T00:49:46.099Z,-0.22
2023-01-26T00:52:13.267Z,-0.19
2023-01-26T00:54:39.708Z,-0.18
2023-01-26T00:57:06.195Z,-0.24
2023-01-26T00:59:32.613Z,-0.27
2023-01-26T01:02:01.359Z,-0.21
2023-01-26T01:04:29.867Z,-0.15
2023-01-26T01:06:59.268Z,-0.09
2023-01-26T01:09:25.724Z,-0.01
2023-01-26T01:11:52.247Z,-0.07
2023-01-26T01:14:18.680Z,-0.06
2023-01-26T01:16:46.461Z,-0.18
2023-01-26T01:19:14.414Z,-0.14
2023-01-26T01:21:41.139Z,-0.21
2023-01-26T01:24:07.790Z,-0.15
2023-01-26T01:26:34.230Z,-0.07
2023-01-26T01:29:00.701Z,-0.09
2023-01-26T01:31:29.382Z,-0.13
2023-01-26T01:33:56.650Z,-0.17
2023-01-26T01:36:23.870Z,-0.09
2023-01-26T01:38:50.377Z,0.03
2023-01-26T01:41:19.555Z,0.00
2023-01-26T01:43:46.467Z,-0.10
2023-01-26T01:46:23.977Z,-0.04
2023-01-26T01:48:50.445Z,0.05
2023-01-26T01:51:19.979Z,0.07
2023-01-26T01:53:48.495Z,0.06
2023-01-26T01:56:21.692Z,0.00
2023-01-26T01:58:49.911Z,-0.02
2023-01-26T02:01:16.432Z,0.03
2023-01-26T02:03:45.227Z,0.06
2023-01-26T02:06:14.373Z,-0.10
2023-01-26T02:08:43.824Z,-0.22
2023-01-26T02:11:31.645Z,-0.22
2023-01-26T02:13:58.774Z,-0.15
2023-01-26T02:16:25.318Z,-0.15
2023-01-26T02:18:51.866Z,-0.21
2023-01-26T02:21:19.714Z,-0.29
2023-01-26T02:24:01.296Z,-0.26
2023-01-26T02:26:32.356Z,-0.22
2023-01-26T02:28:59.800Z,-0.23
2023-01-26T02:31:26.925Z,-0.33
2023-01-26T02:33:53.456Z,-0.41
2023-01-26T02:36:22.217Z,-0.44
2023-01-26T02:38:56.788Z,-0.39
2023-01-26T02:41:42.090Z,-0.36
2023-01-26T02:44:09.961Z,-0.32
2023-01-26T02:46:36.488Z,-0.31
2023-01-26T02:49:21.369Z,-0.34
2023-01-26T02:51:47.819Z,-0.37
2023-01-26T02:54:34.209Z,-0.30
2023-01-26T02:57:00.854Z,-0.24
2023-01-26T02:59:27.330Z,-0.35
2023-01-26T03:01:55.638Z,-0.35
2023-01-26T03:04:22.304Z,-0.39
2023-01-26T03:06:48.784Z,-0.45
2023-01-26T03:09:15.244Z,-0.47
2023-01-26T03:11:44.492Z,-0.47
2023-01-26T03:14:11.867Z,-0.42
2023-01-26T03:16:38.914Z,-0.38
2023-01-26T03:19:24.899Z,-0.36
2023-01-26T03:22:09.780Z,-0.35
2023-01-26T03:24:54.668Z,-0.36
2023-01-26T03:27:26.748Z,-0.31
2023-01-26T03:29:53.622Z,-0.27
2023-01-26T03:32:20.064Z,-0.24
2023-01-26T03:34:46.516Z,-0.21
2023-01-26T03:37:12.955Z,-0.17
2023-01-26T03:39:58.050Z,-0.16
2023-01-26T03:42:42.988Z,-0.15
2023-01-26T03:45:28.086Z,-0.16
2023-01-26T03:48:21.653Z,-0.15
2023-01-26T03:51:06.578Z,-0.13
2023-01-26T03:53:51.474Z,-0.13
2023-01-26T03:56:24.961Z,-0.10
2023-01-26T03:58:52.936Z,-0.10
2023-01-26T04:01:21.730Z,-0.09
2023-01-26T04:04:07.942Z,-0.09
2023-01-26T04:06:53.789Z,-0.13
2023-01-26T04:09:20.490Z,-0.10
2023-01-26T04:11:47.378Z,-0.13
2023-01-26T04:14:36.270Z,-0.14
2023-01-26T04:17:34.949Z,-0.15
2023-01-26T04:20:19.958Z,-0.19
2023-01-26T04:22:46.385Z,-0.20
2023-01-26T04:25:16.417Z,-0.22
2023-01-26T04:27:43.487Z,-0.23
2023-01-26T04:30:11.577Z,-0.26
2023-01-26T04:32:38.268Z,-0.26
2023-01-26T04:35:05.543Z,-0.24
2023-01-26T04:37:32.090Z,-0.25
2023-01-26T04:39:58.673Z,-0.27
2023-01-26T04:42:25.387Z,-0.26
2023-01-26T04:44:52.166Z,-0.23
2023-01-26T04:47:18.973Z,-0.24
2023-01-26T04:49:45.423Z,-0.24
2023-01-26T04:52:11.856Z,-0.26
2023-01-26T04:54:38.318Z,-0.27
2023-01-26T04:57:04.802Z,-0.27
2023-01-26T04:59:31.314Z,-0.27
2023-01-26T05:01:57.784Z,-0.30
2023-01-26T05:04:24.218Z,-0.33
2023-01-26T05:06:50.699Z,-0.32
2023-01-26T05:09:17.238Z,-0.31
2023-01-26T05:11:43.677Z,-0.32
2023-01-26T05:14:10.165Z,-0.31
2023-01-26T05:16:36.648Z,-0.35
2023-01-26T05:19:03.097Z,-0.38
2023-01-26T05:21:29.532Z,-0.36
2023-01-26T05:23:56.064Z,-0.32
2023-01-26T05:26:22.897Z,-0.36
2023-01-26T05:28:49.355Z,-0.34
2023-01-26T05:31:15.934Z,-0.33
2023-01-26T05:33:42.421Z,-0.33
2023-01-26T05:36:08.883Z,-0.30
2023-01-26T05:38:35.309Z,-0.30
2023-01-26T05:41:01.771Z,-0.31
2023-01-26T05:43:28.203Z,-0.30
2023-01-26T05:45:54.846Z,-0.28
2023-01-26T05:48:21.281Z,-0.25
2023-01-26T05:50:47.749Z,-0.22
2023-01-26T05:53:15.135Z,-0.19
2023-01-26T05:55:41.583Z,-0.19
2023-01-26T05:58:08.063Z,-0.16
2023-01-26T06:00:34.500Z,-0.15
2023-01-26T06:03:00.925Z,-0.15
2023-01-26T06:05:27.377Z,-0.18
2023-01-26T06:07:53.806Z,-0.19
2023-01-26T06:10:20.299Z,-0.16
2023-01-26T06:12:46.745Z,-0.15
2023-01-26T06:15:13.177Z,-0.17
2023-01-26T06:17:39.827Z,-0.20
2023-01-26T06:20:07.134Z,-0.19
2023-01-26T06:22:33.563Z,-0.20
2023-01-26T06:25:00.011Z,-0.18
2023-01-26T06:27:26.492Z,-0.16
2023-01-26T06:29:52.945Z,-0.16
2023-01-26T06:32:19.463Z,-0.14
2023-01-26T06:34:45.949Z,-0.14
2023-01-26T06:37:13.977Z,-0.12
2023-01-26T06:39:41.643Z,-0.10
2023-01-26T06:42:08.406Z,-0.07
2023-01-26T06:44:34.839Z,-0.03
2023-01-26T06:47:01.273Z,-0.02
2023-01-26T06:49:28.306Z,0.02
2023-01-26T06:51:56.876Z,-0.01
2023-01-26T06:54:23.339Z,-0.04
2023-01-26T06:56:49.874Z,-0.03
2023-01-26T06:59:16.577Z,-0.01
2023-01-26T07:01:49.990Z,0.03
2023-01-26T07:04:17.022Z,0.05
2023-01-26T07:06:43.791Z,0.07
2023-01-26T07:09:10.787Z,0.06
2023-01-26T07:11:37.388Z,0.06
2023-01-26T07:14:03.904Z,0.11
2023-01-26T07:16:33.365Z,0.13
2023-01-26T07:19:00.183Z,0.08
2023-01-26T07:21:26.659Z,-0.04
2023-01-26T07:23:54.195Z,-0.08
2023-01-26T07:26:20.987Z,-0.05
2023-01-26T07:28:47.444Z,-0.01
2023-01-26T07:31:14.214Z,0.02
2023-01-26T07:33:40.819Z,0.02
2023-01-26T07:36:07.479Z,-0.01
2023-01-26T07:38:34.233Z,0.00
2023-01-26T07:41:04.309Z,-0.05
2023-01-26T07:43:32.638Z,-0.04
2023-01-26T07:45:59.069Z,0.03
2023-01-26T07:48:25.566Z,0.07
2023-01-26T07:50:52.078Z,0.09
2023-01-26T07:53:23.031Z,0.10
2023-01-26T07:55:49.612Z,0.12
2023-01-26T07:58:16.258Z,0.11
2023-01-26T08:00:42.701Z,0.10
2023-01-26T08:03:09.184Z,0.13
2023-01-26T08:05:37.120Z,0.06
2023-01-26T08:08:04.009Z,0.03
2023-01-26T08:10:32.332Z,0.05
2023-01-26T08:12:59.738Z,0.05
2023-01-26T08:15:26.598Z,0.10
2023-01-26T08:17:56.372Z,0.09
2023-01-26T08:20:22.956Z,0.10
2023-01-26T08:22:49.397Z,0.15
2023-01-26T08:25:15.874Z,0.10
2023-01-26T08:27:42.330Z,0.08
2023-01-26T08:30:09.332Z,0.14
2023-01-26T08:32:35.926Z,0.17
2023-01-26T08:35:02.429Z,0.19
2023-01-26T08:37:29.159Z,0.16
2023-01-26T08:39:55.686Z,0.18
2023-01-26T08:42:22.914Z,0.19
2023-01-26T08:44:49.424Z,0.21
2023-01-26T08:47:15.867Z,0.24
2023-01-26T08:49:42.318Z,0.26
2023-01-26T08:52:08.909Z,0.29
2023-01-26T08:54:35.433Z,0.31
2023-01-26T08:57:01.980Z,0.33
2023-01-26T08:59:28.429Z,0.33
2023-01-26T09:01:55.974Z,0.35
2023-01-26T09:04:22.525Z,0.37
2023-01-26T09:06:48.993Z,0.37
2023-01-26T09:09:15.589Z,0.39
2023-01-26T09:11:42.124Z,0.40
2023-01-26T09:14:08.609Z,0.40
2023-01-26T09:16:35.138Z,0.41
2023-01-26T09:19:01.619Z,0.45
2023-01-26T09:21:28.095Z,0.47
2023-01-26T09:23:55.997Z,0.45
2023-01-26T09:26:22.507Z,0.46
2023-01-26T09:28:52.514Z,0.46
2023-01-26T09:31:19.177Z,0.44
2023-01-26T09:33:45.750Z,0.45
2023-01-26T09:36:12.514Z,0.46
2023-01-26T09:38:40.086Z,0.41
2023-01-26T09:41:21.774Z,0.30
2023-01-26T09:43:53.225Z,0.34
2023-01-26T09:46:25.397Z,0.33
2023-01-26T09:49:00.647Z,0.24
2023-01-26T09:51:45.731Z,0.29
2023-01-26T09:54:16.922Z,0.34
2023-01-26T09:56:43.752Z,0.29
2023-01-26T09:59:28.134Z,0.34
2023-01-26T10:02:03.283Z,0.41
2023-01-26T10:04:36.454Z,0.44
2023-01-26T10:07:04.454Z,0.43
2023-01-26T10:09:37.696Z,0.47
2023-01-26T10:12:22.666Z,0.44
2023-01-26T10:14:52.172Z,0.45
2023-01-26T10:17:24.733Z,0.43
2023-01-26T10:19:55.131Z,0.46
2023-01-26T10:22:24.682Z,0.52
2023-01-26T10:24:51.696Z,0.48
2023-01-26T10:27:19.148Z,0.54
2023-01-26T10:29:45.617Z,0.60
2023-01-26T10:32:17.235Z,0.63
2023-01-26T10:34:45.655Z,0.64
2023-01-26T10:37:21.540Z,0.64
2023-01-26T10:39:57.188Z,0.66
2023-01-26T10:42:25.151Z,0.57
2023-01-26T10:44:51.586Z,0.53
2023-01-26T10:47:19.860Z,0.52
2023-01-26T10:49:46.387Z,0.54
2023-01-26T10:52:21.743Z,0.58
2023-01-26T10:55:08.486Z,0.47
2023-01-26T10:57:39.312Z,0.44
2023-01-26T11:00:07.982Z,0.38
2023-01-26T11:02:35.688Z,0.39
2023-01-26T11:05:08.405Z,0.45
2023-01-26T11:07:39.127Z,0.53
2023-01-26T11:10:22.618Z,0.59
2023-01-26T11:12:49.790Z,0.68
2023-01-26T11:15:23.705Z,0.74
2023-01-26T11:17:52.916Z,0.78
2023-01-26T11:20:38.187Z,0.67
2023-01-26T11:23:09.308Z,0.50
2023-01-26T11:25:42.219Z,0.45
2023-01-26T11:28:18.050Z,0.52
2023-01-26T11:30:47.585Z,0.59
2023-01-26T11:33:22.858Z,0.63
2023-01-26T11:35:49.285Z,0.67
2023-01-26T11:38:34.475Z,0.65
2023-01-26T11:41:03.911Z,0.66
2023-01-26T11:43:30.310Z,0.71
2023-01-26T11:45:59.904Z,0.80
2023-01-26T11:48:29.082Z,0.73
2023-01-26T11:50:57.855Z,0.67
2023-01-26T11:53:27.313Z,0.69
2023-01-26T11:56:06.014Z,0.74
2023-01-26T11:58:41.121Z,0.84
2023-01-26T12:01:11.715Z,0.91
2023-01-26T12:03:51.267Z,0.97
2023-01-26T12:06:20.019Z,0.90
2023-01-26T12:09:04.310Z,0.86
2023-01-26T12:11:42.788Z,0.81
2023-01-26T12:14:12.260Z,0.76
2023-01-26T12:16:53.625Z,0.75
2023-01-26T12:19:23.351Z,0.75
2023-01-26T12:21:50.388Z,0.86
2023-01-26T12:24:48.498Z,0.98
2023-01-26T12:27:16.299Z,1.05
2023-01-26T12:30:05.851Z,1.08
2023-01-26T12:32:33.295Z,1.09
2023-01-26T12:34:59.807Z,1.10
2023-01-26T12:37:32.543Z,1.08
2023-01-26T12:40:06.615Z,1.04
2023-01-26T12:42:42.170Z,0.92
2023-01-26T12:45:13.112Z,0.95
2023-01-26T12:47:39.687Z,1.04
2023-01-26T12:50:11.807Z,1.06
2023-01-26T12:52:43.649Z,1.13
2023-01-26T12:55:30.358Z,1.17
2023-01-26T12:58:02.431Z,1.17
2023-01-26T13:00:30.991Z,1.18
2023-01-26T13:03:00.761Z,1.17
2023-01-26T13:05:31.928Z,1.13
2023-01-26T13:07:58.580Z,1.06
2023-01-26T13:10:29.321Z,0.95
2023-01-26T13:12:55.904Z,0.95
2023-01-26T13:15:23.886Z,0.96
2023-01-26T13:17:52.108Z,0.94
2023-01-26T13:20:23.976Z,0.88
2023-01-26T13:22:50.873Z,0.93
2023-01-26T13:25:23.464Z,1.00
2023-01-26T13:27:57.362Z,0.95
2023-01-26T13:30:28.376Z,1.01
2023-01-26T13:33:04.624Z,1.05
2023-01-26T13:35:31.569Z,1.09
2023-01-26T13:38:00.895Z,1.15
2023-01-26T13:40:34.788Z,1.18
2023-01-26T13:43:25.319Z,1.21
2023-01-26T13:45:59.716Z,1.23
2023-01-26T13:48:36.300Z,1.27
2023-01-26T13:51:03.730Z,1.30
2023-01-26T13:53:38.364Z,1.31
2023-01-26T13:56:06.464Z,1.31
2023-01-26T13:58:33.906Z,1.29
2023-01-26T14:01:02.074Z,1.26
2023-01-26T14:03:30.218Z,1.26
2023-01-26T14:06:02.236Z,1.30
2023-01-26T14:08:29.952Z,1.33
2023-01-26T14:10:56.558Z,1.26
2023-01-26T14:13:27.153Z,1.24
2023-01-26T14:15:59.595Z,1.25
2023-01-26T14:18:26.726Z,1.29
2023-01-26T14:20:59.415Z,1.30
2023-01-26T14:23:30.053Z,1.30
2023-01-26T14:26:01.862Z,1.27
2023-01-26T14:28:31.286Z,1.29
2023-01-26T14:31:08.484Z,1.29
2023-01-26T14:33:36.366Z,1.31
2023-01-26T14:36:04.211Z,1.33
2023-01-26T14:38:39.579Z,1.30
2023-01-26T14:41:13.561Z,1.29
2023-01-26T14:43:40.012Z,1.27
2023-01-26T14:46:14.597Z,1.27
2023-01-26T14:48:45.189Z,1.20
2023-01-26T14:51:18.189Z,1.21
2023-01-26T14:53:49.026Z,1.23
2023-01-26T14:56:18.644Z,1.24
2023-01-26T14:58:45.162Z,1.25
2023-01-26T15:01:20.174Z,1.24
2023-01-26T15:03:48.335Z,1.27
2023-01-26T15:06:15.371Z,1.27
2023-01-26T15:08:42.750Z,1.19
2023-01-26T15:11:28.843Z,1.21
2023-01-26T15:13:55.865Z,1.21
2023-01-26T15:16:23.446Z,1.21
2023-01-26T15:18:59.381Z,1.19
2023-01-26T15:21:32.718Z,1.15
2023-01-26T15:23:59.259Z,1.13
2023-01-26T15:26:30.006Z,1.13
2023-01-26T15:28:57.972Z,1.17
2023-01-26T15:31:33.092Z,1.18
2023-01-26T15:34:01.765Z,1.20
2023-01-26T15:36:28.288Z,1.18
2023-01-26T15:39:00.891Z,1.18
2023-01-26T15:41:27.956Z,1.18
2023-01-26T15:43:54.716Z,1.15
2023-01-26T15:46:21.270Z,1.13
2023-01-26T15:48:48.177Z,1.13
2023-01-26T15:51:15.323Z,1.12
2023-01-26T15:53:41.769Z,1.14
2023-01-26T15:56:12.386Z,1.10
2023-01-26T15:58:39.004Z,1.06
2023-01-26T16:01:05.766Z,1.06
2023-01-26T16:03:32.260Z,1.02
2023-01-26T16:05:58.729Z,1.02
2023-01-26T16:08:25.148Z,1.06
2023-01-26T16:10:51.602Z,1.10
2023-01-26T16:13:18.860Z,1.10
2023-01-26T16:15:46.846Z,1.09
2023-01-26T16:18:13.369Z,1.07
2023-01-26T16:20:40.867Z,1.04
2023-01-26T16:23:23.545Z,0.99
2023-01-26T16:25:50.670Z,1.00
2023-01-26T16:28:17.702Z,0.98
2023-01-26T16:30:45.273Z,0.87
2023-01-26T16:33:12.575Z,0.85
2023-01-26T16:35:39.067Z,0.90
2023-01-26T16:38:07.385Z,0.90
2023-01-26T16:40:34.116Z,0.92
2023-01-26T16:43:01.672Z,0.93
2023-01-26T16:45:28.240Z,0.90
2023-01-26T16:47:56.221Z,0.87
2023-01-26T16:50:26.275Z,0.89
2023-01-26T16:52:53.091Z,0.87
2023-01-26T16:55:20.195Z,0.87
2023-01-26T16:57:47.697Z,0.90
2023-01-26T17:00:16.495Z,0.91
2023-01-26T17:02:44.259Z,0.91
2023-01-26T17:05:15.196Z,0.88
2023-01-26T17:07:41.735Z,0.89
2023-01-26T17:10:08.642Z,0.91
2023-01-26T17:12:35.160Z,0.90
2023-01-26T17:15:01.635Z,0.85
2023-01-26T17:17:28.071Z,0.84
2023-01-26T17:19:55.263Z,0.86
2023-01-26T17:22:21.716Z,0.85
2023-01-26T17:24:48.200Z,0.79
2023-01-26T17:27:14.712Z,0.76
2023-01-26T17:29:42.340Z,0.74
2023-01-26T17:32:08.852Z,0.75
2023-01-26T17:34:35.326Z,0.70
2023-01-26T17:37:01.783Z,0.68
2023-01-26T17:39:28.227Z,0.68
2023-01-26T17:41:54.742Z,0.75
2023-01-26T17:44:21.207Z,0.78
2023-01-26T17:46:47.685Z,0.78
2023-01-26T17:49:14.135Z,0.79
2023-01-26T17:51:40.569Z,0.78
2023-01-26T17:54:06.991Z,0.79
2023-01-26T17:56:33.421Z,0.74
2023-01-26T17:58:59.893Z,0.72
2023-01-26T18:01:26.914Z,0.73
2023-01-26T18:03:56.367Z,0.77
2023-01-26T18:06:22.965Z,0.77
2023-01-26T18:08:49.411Z,0.76
2023-01-26T18:11:16.673Z,0.76
2023-01-26T18:13:43.918Z,0.75
2023-01-26T18:16:12.385Z,0.74
2023-01-26T18:18:38.895Z,0.79
2023-01-26T18:21:11.265Z,0.80
2023-01-26T18:23:37.797Z,0.73
2023-01-26T18:26:05.070Z,0.72
2023-01-26T18:28:31.905Z,0.73
2023-01-26T18:30:58.596Z,0.73
2023-01-26T18:33:25.080Z,0.72
2023-01-26T18:35:51.515Z,0.73
2023-01-26T18:38:17.958Z,0.69
2023-01-26T18:40:44.395Z,0.68
2023-01-26T18:43:10.914Z,0.68
2023-01-26T18:45:40.241Z,0.69
2023-01-26T18:48:06.758Z,0.71
2023-01-26T18:50:33.185Z,0.68
2023-01-26T18:52:59.675Z,0.66
2023-01-26T18:55:26.403Z,0.67
2023-01-26T18:57:54.299Z,0.67
2023-01-26T19:00:21.078Z,0.66
2023-01-26T19:02:47.645Z,0.66
2023-01-26T19:05:14.451Z,0.67
2023-01-26T19:07:41.509Z,0.68
2023-01-26T19:10:08.322Z,0.65
2023-01-26T19:12:34.794Z,0.60
2023-01-26T19:15:02.046Z,0.54
2023-01-26T19:17:29.206Z,0.54
2023-01-26T19:19:55.640Z,0.53
2023-01-26T19:22:22.151Z,0.52
2023-01-26T19:24:48.671Z,0.55
2023-01-26T19:27:15.202Z,0.58
2023-01-26T19:29:41.639Z,0.54
2023-01-26T19:32:08.161Z,0.50
2023-01-26T19:34:35.143Z,0.49
2023-01-26T19:37:01.734Z,0.46
2023-01-26T19:39:28.245Z,0.47
2023-01-26T19:41:54.724Z,0.50
2023-01-26T19:44:21.153Z,0.55
2023-01-26T19:46:50.478Z,0.58
2023-01-26T19:49:17.541Z,0.56
2023-01-26T19:51:44.039Z,0.55
2023-01-26T19:54:10.510Z,0.51
2023-01-26T19:56:37.052Z,0.46
2023-01-26T19:59:05.242Z,0.44
2023-01-26T20:01:32.297Z,0.44
2023-01-26T20:04:00.431Z,0.47
2023-01-26T20:06:28.478Z,0.47
2023-01-26T20:08:55.321Z,0.48
2023-01-26T20:11:25.133Z,0.47
2023-01-26T20:13:55.713Z,0.40
2023-01-26T20:16:22.760Z,0.39
2023-01-26T20:18:49.235Z,0.42
2023-01-26T20:21:15.778Z,0.44
2023-01-26T20:23:53.582Z,0.42
2023-01-26T20:26:21.590Z,0.25
2023-01-26T20:28:48.372Z,0.22
2023-01-26T20:31:16.712Z,0.26
2023-01-26T20:33:44.196Z,0.26
2023-01-26T20:36:12.581Z,0.29
2023-01-26T20:38:39.211Z,0.29
2023-01-26T20:41:10.054Z,0.31
2023-01-26T20:43:39.519Z,0.29
2023-01-26T20:46:09.533Z,0.30
2023-01-26T20:48:36.027Z,0.30
2023-01-26T20:51:09.543Z,0.29
2023-01-26T20:53:35.963Z,0.27
2023-01-26T20:56:02.393Z,0.28
2023-01-26T20:58:28.932Z,0.31
2023-01-26T21:01:02.497Z,0.30
2023-01-26T21:03:29.046Z,0.31
2023-01-26T21:05:55.567Z,0.35
2023-01-26T21:08:22.073Z,0.34
2023-01-26T21:10:49.293Z,0.31
2023-01-26T21:13:15.723Z,0.34
2023-01-26T21:15:42.181Z,0.36
2023-01-26T21:18:08.639Z,0.34
2023-01-26T21:20:35.069Z,0.30
2023-01-26T21:23:01.809Z,0.24
2023-01-26T21:25:28.257Z,0.22
2023-01-26T21:27:54.747Z,0.19
2023-01-26T21:30:21.722Z,0.23
2023-01-26T21:32:48.431Z,0.29
2023-01-26T21:35:16.106Z,0.31
2023-01-26T21:37:42.547Z,0.28
2023-01-26T21:40:10.631Z,0.29
2023-01-26T21:42:37.602Z,0.31
2023-01-26T21:45:22.874Z,0.27
2023-01-26T21:48:09.288Z,0.24
2023-01-26T21:50:55.980Z,0.26
2023-01-26T21:53:22.638Z,0.23
2023-01-26T21:55:49.103Z,0.21
2023-01-26T21:58:35.844Z,0.23
2023-01-26T22:01:08.719Z,0.23
2023-01-26T22:03:36.819Z,0.21
2023-01-26T22:06:04.271Z,0.23
2023-01-26T22:08:31.081Z,0.23
2023-01-26T22:10:57.516Z,0.20
2023-01-26T22:13:24.346Z,0.17
2023-01-26T22:15:50.810Z,0.05
2023-01-26T22:18:17.726Z,-0.13
2023-01-26T22:20:44.378Z,-0.14
2023-01-26T22:23:11.371Z,-0.07
2023-01-26T22:25:38.303Z,-0.03
2023-01-26T22:28:05.049Z,-0.05
2023-01-26T22:30:31.937Z,-0.07
2023-01-26T22:32:58.452Z,-0.02
2023-01-26T22:35:24.920Z,0.03
2023-01-26T22:37:51.375Z,0.05
2023-01-26T22:40:18.015Z,0.07
2023-01-26T22:42:44.434Z,0.07
2023-01-26T22:45:11.616Z,0.08
2023-01-26T22:47:38.617Z,0.06
2023-01-26T22:50:05.556Z,0.07
2023-01-26T22:52:31.977Z,0.05
2023-01-26T22:54:58.405Z,0.02
2023-01-26T22:57:24.983Z,-0.04
2023-01-26T22:59:51.711Z,-0.18
2023-01-26T23:02:18.175Z,-0.15
2023-01-26T23:04:44.667Z,-0.10
2023-01-26T23:07:11.289Z,-0.08
2023-01-26T23:09:37.751Z,-0.07
2023-01-26T23:12:04.371Z,-0.09
2023-01-26T23:14:31.224Z,-0.10
2023-01-26T23:16:58.009Z,-0.07
2023-01-26T23:19:24.818Z,-0.07
2023-01-26T23:21:51.426Z,-0.09
2023-01-26T23:24:17.910Z,-0.15
2023-01-26T23:26:44.344Z,-0.16
2023-01-26T23:29:10.806Z,-0.19
2023-01-26T23:31:37.477Z,-0.16
2023-01-26T23:34:03.911Z,-0.18
2023-01-26T23:36:30.396Z,-0.22
2023-01-26T23:38:56.898Z,-0.24
2023-01-26T23:41:23.423Z,-0.27
2023-01-26T23:43:49.894Z,-0.27
2023-01-26T23:46:16.393Z,-0.24
2023-01-26T23:48:42.803Z,-0.21
2023-01-26T23:51:10.481Z,-0.16
2023-01-26T23:53:37.363Z,-0.13
2023-01-26T23:56:06.068Z,-0.16
2023-01-26T23:58:32.501Z,-0.23
